Time;durP1;ratioP1;P1;durP2;ratioP2;P2;SDS_P1;SDS_P2;PMS_P1;PMS_P2;Temp;Humidity;BMP_temperature;BMP_pressure;BME280_temperature;BME280_humidity;BME280_pressure;Samples;Min_cycle;Max_cycle;Signal;HPM_P1;HPM_P2
2024/01/22 00:02:56;;;;;;;8.63;5.13;;;;;;;;;;6336562;28;20019;-82
2024/01/22 00:05:56;;;;;;;9.43;5.00;;;;;;;;;;6336727;28;20104;-81
2024/01/22 00:08:56;;;;;;;6.63;4.37;;;;;;;;;;6335389;28;20020;-81
2024/01/22 00:11:57;;;;;;;8.37;4.70;;;;;;;;;;6339936;28;20031;-81
2024/01/22 00:14:57;;;;;;;7.13;3.97;;;;;;;;;;6338337;28;20027;-81
2024/01/22 00:17:57;;;;;;;6.03;3.83;;;;;;;;;;6338320;28;20023;-80
2024/01/22 00:20:58;;;;;;;4.43;3.27;;;;;;;;;;6338240;28;20043;-83
2024/01/22 00:23:58;;;;;;;5.77;3.27;;;;;;;;;;6326081;28;20343;-82
2024/01/22 00:26:58;;;;;;;5.27;3.03;;;;;;;;;;6336798;28;20020;-82
2024/01/22 00:29:59;;;;;;;4.60;3.20;;;;;;;;;;6337301;28;20042;-81
2024/01/22 00:32:59;;;;;;;5.17;3.20;;;;;;;;;;6336982;28;20533;-82
2024/01/22 00:36:00;;;;;;;4.43;3.00;;;;;;;;;;6338148;28;20034;-82
2024/01/22 00:39:00;;;;;;;3.67;2.47;;;;;;;;;;6339053;28;20027;-81
2024/01/22 00:42:00;;;;;;;5.83;2.80;;;;;;;;;;6314077;28;20350;-80
2024/01/22 00:45:00;;;;;;;5.47;3.20;;;;;;;;;;6329019;28;20119;-84
2024/01/22 00:48:01;;;;;;;4.63;2.90;;;;;;;;;;6338670;28;20110;-84
2024/01/22 00:51:01;;;;;;;4.87;3.07;;;;;;;;;;6339630;28;20054;-84
2024/01/22 00:54:01;;;;;;;3.87;2.90;;;;;;;;;;6338114;28;20055;-84
2024/01/22 00:57:01;;;;;;;5.63;3.13;;;;;;;;;;6338352;28;20024;-84
2024/01/22 01:00:02;;;;;;;5.83;3.07;;;;;;;;;;6338146;28;20721;-84
2024/01/22 01:03:02;;;;;;;4.33;2.93;;;;;;;;;;5984270;28;9999868;-84
2024/01/22 01:06:03;;;;;;;4.50;2.87;;;;;;;;;;6337931;28;20519;-84
2024/01/22 01:09:03;;;;;;;5.87;2.70;;;;;;;;;;6319163;28;20031;-84
2024/01/22 01:12:04;;;;;;;5.43;2.70;;;;;;;;;;6340635;28;20472;-84
2024/01/22 01:15:07;;;;;;;3.90;2.33;;;;;;;;;;6338693;28;20063;-83
2024/01/22 01:18:07;;;;;;;5.70;3.00;;;;;;;;;;6322463;28;20047;-83
2024/01/22 01:21:08;;;;;;;7.63;4.33;;;;;;;;;;6318556;28;20026;-83
2024/01/22 01:24:08;;;;;;;13.33;5.73;;;;;;;;;;6338878;28;20110;-84
2024/01/22 01:27:08;;;;;;;10.27;5.40;;;;;;;;;;6342038;28;20057;-83
2024/01/22 01:30:10;;;;;;;7.53;4.57;;;;;;;;;;6321686;28;20110;-83
2024/01/22 01:33:10;;;;;;;;;;;;;;;;;;6339864;28;20032;-83
2024/01/22 01:36:10;;;;;;;7.47;3.60;;;;;;;;;;6339141;28;20300;-83
2024/01/22 01:39:11;;;;;;;4.93;3.43;;;;;;;;;;6341796;28;20273;-83
2024/01/22 01:42:12;;;;;;;5.73;3.53;;;;;;;;;;6340556;28;20031;-83
2024/01/22 01:45:13;;;;;;;4.23;3.17;;;;;;;;;;6343968;28;20404;-83
2024/01/22 01:48:14;;;;;;;4.55;2.72;;;;;;;;;;6340345;28;20026;-83
2024/01/22 01:51:14;;;;;;;5.67;3.20;;;;;;;;;;6338954;28;20019;-83
2024/01/22 01:54:15;;;;;;;5.50;3.53;;;;;;;;;;6339275;28;20059;-83
2024/01/22 01:57:16;;;;;;;5.63;3.07;;;;;;;;;;6337958;28;20019;-83
2024/01/22 02:00:16;;;;;;;4.60;2.83;;;;;;;;;;6344980;28;20035;-83
2024/01/22 02:03:17;;;;;;;4.63;3.00;;;;;;;;;;6346004;28;20058;-83
2024/01/22 02:06:17;;;;;;;5.40;3.20;;;;;;;;;;6320648;28;20047;-83
2024/01/22 02:09:17;;;;;;;4.93;3.17;;;;;;;;;;6344668;28;20016;-83
2024/01/22 02:12:18;;;;;;;5.40;3.20;;;;;;;;;;6343521;28;20028;-84
2024/01/22 02:15:19;;;;;;;4.65;3.25;;;;;;;;;;6346315;28;20024;-84
2024/01/22 02:18:19;;;;;;;4.90;3.07;;;;;;;;;;6326378;28;20521;-84
2024/01/22 02:21:19;;;;;;;4.90;3.20;;;;;;;;;;6345225;28;20744;-83
2024/01/22 02:24:20;;;;;;;5.53;3.30;;;;;;;;;;6346939;28;20395;-84
2024/01/22 02:27:20;;;;;;;5.37;3.23;;;;;;;;;;6348981;28;20027;-83
2024/01/22 02:30:20;;;;;;;4.57;2.90;;;;;;;;;;6347269;28;20508;-83
2024/01/22 02:33:21;;;;;;;5.23;3.10;;;;;;;;;;6341753;28;20099;-83
2024/01/22 02:36:21;;;;;;;5.20;3.10;;;;;;;;;;6343252;28;20348;-83
2024/01/22 02:39:21;;;;;;;4.73;3.17;;;;;;;;;;6326152;28;20038;-83
2024/01/22 02:42:21;;;;;;;4.80;3.33;;;;;;;;;;6341261;28;20051;-83
2024/01/22 02:45:22;;;;;;;5.93;3.47;;;;;;;;;;6345572;28;20031;-83
2024/01/22 02:48:22;;;;;;;3.87;2.97;;;;;;;;;;6339533;28;20043;-84
2024/01/22 02:51:22;;;;;;;5.27;3.20;;;;;;;;;;6340758;28;20333;-84
2024/01/22 02:54:22;;;;;;;5.60;2.90;;;;;;;;;;6322715;28;20045;-84
2024/01/22 02:57:23;;;;;;;3.70;2.90;;;;;;;;;;6319647;28;20028;-85
2024/01/22 03:00:23;;;;;;;4.63;2.90;;;;;;;;;;6344520;28;20053;-83
2024/01/22 03:03:24;;;;;;;4.30;3.17;;;;;;;;;;6339001;28;20027;-86
2024/01/22 03:06:24;;;;;;;7.20;3.80;;;;;;;;;;6340663;28;20062;-81
2024/01/22 03:09:24;;;;;;;5.00;3.00;;;;;;;;;;6342530;28;20376;-81
2024/01/22 03:12:25;;;;;;;5.10;3.37;;;;;;;;;;6321883;28;20137;-80
2024/01/22 03:15:25;;;;;;;6.27;3.40;;;;;;;;;;6342534;28;20022;-80
2024/01/22 03:18:26;;;;;;;4.87;3.20;;;;;;;;;;6341735;28;20020;-82
2024/01/22 03:21:26;;;;;;;5.70;3.40;;;;;;;;;;6342467;28;20023;-80
2024/01/22 03:24:27;;;;;;;4.00;2.97;;;;;;;;;;6342746;28;20019;-81
2024/01/22 03:27:27;;;;;;;4.88;3.33;;;;;;;;;;6343110;28;20374;-79
2024/01/22 03:30:27;;;;;;;3.90;2.77;;;;;;;;;;6341234;28;20039;-81
2024/01/22 03:33:28;;;;;;;6.27;3.53;;;;;;;;;;6343485;28;20028;-81
2024/01/22 03:36:28;;;;;;;6.07;3.03;;;;;;;;;;6343701;28;20042;-81
2024/01/22 03:39:28;;;;;;;4.47;3.40;;;;;;;;;;6343664;28;20027;-81
2024/01/22 03:42:28;;;;;;;5.90;3.40;;;;;;;;;;6343378;28;20043;-80
2024/01/22 03:45:29;;;;;;;5.73;3.43;;;;;;;;;;6344371;28;20054;-80
2024/01/22 03:48:29;;;;;;;4.80;3.00;;;;;;;;;;6346650;28;20020;-80
2024/01/22 03:51:29;;;;;;;5.53;3.47;;;;;;;;;;6342821;28;20035;-80
2024/01/22 03:54:30;;;;;;;4.93;3.43;;;;;;;;;;6339142;28;20483;-81
2024/01/22 03:57:30;;;;;;;5.63;3.27;;;;;;;;;;6343246;28;20439;-80
2024/01/22 04:00:30;;;;;;;4.73;3.23;;;;;;;;;;6343860;28;20020;-80
2024/01/22 04:03:31;;;;;;;4.77;3.10;;;;;;;;;;6326886;28;20027;-81
2024/01/22 04:06:31;;;;;;;5.65;3.13;;;;;;;;;;6342443;28;20790;-81
2024/01/22 04:09:32;;;;;;;4.17;2.87;;;;;;;;;;6342873;28;20053;-81
2024/01/22 04:12:32;;;;;;;5.90;3.50;;;;;;;;;;6344694;28;20019;-81
2024/01/22 04:15:32;;;;;;;4.90;3.20;;;;;;;;;;6340043;28;20028;-84
2024/01/22 04:18:33;;;;;;;5.30;3.33;;;;;;;;;;6327348;28;20092;-84
2024/01/22 04:21:33;;;;;;;6.93;3.10;;;;;;;;;;6324533;28;20472;-85
2024/01/22 04:24:33;;;;;;;6.10;3.47;;;;;;;;;;6339491;28;20036;-85
2024/01/22 04:27:34;;;;;;;5.80;3.53;;;;;;;;;;6337627;28;20023;-82
2024/01/22 04:30:34;;;;;;;6.13;3.23;;;;;;;;;;6338825;28;20016;-80
2024/01/22 04:33:34;;;;;;;4.27;2.50;;;;;;;;;;6338748;28;20416;-80
2024/01/22 04:36:35;;;;;;;3.87;3.13;;;;;;;;;;6329081;28;20039;-80
2024/01/22 04:39:35;;;;;;;6.07;3.43;;;;;;;;;;6340633;28;20063;-81
2024/01/22 04:42:35;;;;;;;6.63;3.50;;;;;;;;;;6341386;28;20023;-81
2024/01/22 04:45:36;;;;;;;6.10;3.57;;;;;;;;;;6326905;28;20035;-81
2024/01/22 04:48:36;;;;;;;5.00;3.53;;;;;;;;;;6332156;28;20106;-81
2024/01/22 04:51:37;;;;;;;5.97;3.47;;;;;;;;;;6338469;28;20099;-81
2024/01/22 04:54:37;;;;;;;5.97;3.93;;;;;;;;;;6331012;28;20028;-81
2024/01/22 04:57:37;;;;;;;5.47;3.23;;;;;;;;;;6339473;28;20468;-81
2024/01/22 05:00:38;;;;;;;6.17;3.70;;;;;;;;;;6340643;28;20605;-81
2024/01/22 05:03:38;;;;;;;5.27;3.70;;;;;;;;;;6341045;28;20028;-82
2024/01/22 05:06:38;;;;;;;5.30;3.00;;;;;;;;;;6338692;28;20066;-81
2024/01/22 05:09:38;;;;;;;5.57;3.50;;;;;;;;;;6340233;28;20050;-82
2024/01/22 05:12:39;;;;;;;6.23;3.50;;;;;;;;;;6341464;28;20020;-81
2024/01/22 05:15:40;;;;;;;5.77;3.60;;;;;;;;;;6319057;28;20480;-80
2024/01/22 05:18:40;;;;;;;4.95;3.50;;;;;;;;;;6339131;28;20099;-83
2024/01/22 05:21:41;;;;;;;5.97;3.77;;;;;;;;;;6337880;28;20499;-81
2024/01/22 05:24:41;;;;;;;4.77;3.60;;;;;;;;;;6342745;28;20492;-80
2024/01/22 05:27:43;;;;;;;4.40;3.30;;;;;;;;;;6342099;28;20023;-81
2024/01/22 05:30:43;;;;;;;4.60;3.28;;;;;;;;;;6338617;28;20372;-81
2024/01/22 05:33:44;;;;;;;4.63;3.10;;;;;;;;;;6344024;28;20126;-82
2024/01/22 05:36:44;;;;;;;4.87;3.17;;;;;;;;;;6338036;28;20023;-81
2024/01/22 05:39:44;;;;;;;5.53;3.60;;;;;;;;;;6347861;28;20073;-81
2024/01/22 05:42:44;;;;;;;6.50;3.77;;;;;;;;;;6346144;28;20040;-80
2024/01/22 05:45:45;;;;;;;5.47;3.27;;;;;;;;;;6345570;28;20569;-81
2024/01/22 05:48:45;;;;;;;8.67;4.63;;;;;;;;;;6343718;28;20011;-81
2024/01/22 05:51:45;;;;;;;7.17;3.83;;;;;;;;;;6344170;28;20031;-80
2024/01/22 05:54:46;;;;;;;6.20;4.00;;;;;;;;;;6341432;28;20024;-80
2024/01/22 05:57:47;;;;;;;5.37;3.43;;;;;;;;;;6342525;28;20030;-83
2024/01/22 06:00:47;;;;;;;5.35;3.47;;;;;;;;;;6341336;28;20110;-80
2024/01/22 06:03:47;;;;;;;5.83;3.37;;;;;;;;;;6346986;28;20045;-80
2024/01/22 06:06:47;;;;;;;5.60;3.77;;;;;;;;;;6346498;28;20047;-80
2024/01/22 06:09:48;;;;;;;7.20;3.70;;;;;;;;;;6343699;28;20020;-80
2024/01/22 06:12:48;;;;;;;5.17;3.73;;;;;;;;;;6347909;28;20023;-81
2024/01/22 06:15:48;;;;;;;7.17;4.00;;;;;;;;;;6327979;28;20535;-83
2024/01/22 06:18:49;;;;;;;5.90;4.00;;;;;;;;;;6343270;28;20027;-80
2024/01/22 06:21:49;;;;;;;4.87;3.30;;;;;;;;;;6340982;28;20026;-81
2024/01/22 06:24:49;;;;;;;6.40;3.67;;;;;;;;;;6345647;28;20073;-81
2024/01/22 06:27:49;;;;;;;5.83;3.63;;;;;;;;;;6344502;28;20031;-80
2024/01/22 06:30:50;;;;;;;6.07;3.70;;;;;;;;;;6345007;28;20028;-83
2024/01/22 06:33:50;;;;;;;8.77;4.30;;;;;;;;;;6343350;28;20023;-82
2024/01/22 06:36:50;;;;;;;6.47;3.63;;;;;;;;;;6344055;28;20035;-79
2024/01/22 06:39:51;;;;;;;5.80;3.90;;;;;;;;;;6342707;28;20024;-80
2024/01/22 06:42:51;;;;;;;6.07;2.90;;;;;;;;;;6344073;28;20148;-80
2024/01/22 06:45:52;;;;;;;5.47;3.47;;;;;;;;;;6343161;28;20024;-80
2024/01/22 06:48:53;;;;;;;5.03;3.63;;;;;;;;;;6343489;28;20062;-79
2024/01/22 06:51:53;;;;;;;6.00;3.57;;;;;;;;;;6345208;28;20032;-79
2024/01/22 06:54:55;;;;;;;5.17;3.67;;;;;;;;;;6330027;28;20020;-79
2024/01/22 06:57:55;;;;;;;6.28;4.30;;;;;;;;;;6341982;28;20038;-80
2024/01/22 07:00:56;;;;;;;6.63;3.97;;;;;;;;;;6345215;28;20012;-79
2024/01/22 07:03:56;;;;;;;6.10;3.63;;;;;;;;;;6344384;28;20032;-79
2024/01/22 07:06:56;;;;;;;4.57;2.87;;;;;;;;;;6344210;28;20116;-80
2024/01/22 07:09:57;;;;;;;3.83;2.93;;;;;;;;;;6341635;28;20031;-81
2024/01/22 07:12:57;;;;;;;5.43;3.20;;;;;;;;;;6344817;28;20096;-81
2024/01/22 07:15:58;;;;;;;5.40;3.67;;;;;;;;;;6342027;28;20028;-79
2024/01/22 07:18:58;;;;;;;5.80;3.80;;;;;;;;;;6327720;28;20059;-80
2024/01/22 07:21:59;;;;;;;6.33;4.30;;;;;;;;;;6339863;28;20055;-82
2024/01/22 07:24:59;;;;;;;8.63;4.07;;;;;;;;;;6342689;28;20479;-84
2024/01/22 07:27:59;;;;;;;7.40;4.50;;;;;;;;;;6322931;28;21625;-80
2024/01/22 07:31:00;;;;;;;6.97;4.03;;;;;;;;;;6327006;28;20417;-82
2024/01/22 07:34:00;;;;;;;7.47;3.87;;;;;;;;;;6342950;28;20122;-79
2024/01/22 07:37:01;;;;;;;7.80;4.00;;;;;;;;;;6339717;28;20023;-79
2024/01/22 07:40:04;;;;;;;7.13;3.73;;;;;;;;;;6327059;28;20703;-79
2024/01/22 07:43:05;;;;;;;5.93;3.70;;;;;;;;;;6331031;28;20165;-79
2024/01/22 07:46:05;;;;;;;6.47;4.22;;;;;;;;;;6340481;28;20464;-78
2024/01/22 07:49:07;;;;;;;4.87;3.47;;;;;;;;;;6340233;28;20031;-78
2024/01/22 07:52:08;;;;;;;4.47;3.53;;;;;;;;;;6341753;28;20031;-78
2024/01/22 07:55:08;;;;;;;5.80;3.50;;;;;;;;;;6338286;28;20031;-77
2024/01/22 07:58:09;;;;;;;5.50;3.40;;;;;;;;;;6343995;28;20480;-77
2024/01/22 08:01:09;;;;;;;5.33;3.47;;;;;;;;;;6344012;28;20062;-78
2024/01/22 08:04:09;;;;;;;6.83;3.67;;;;;;;;;;6341159;28;20024;-79
2024/01/22 08:07:10;;;;;;;5.47;3.60;;;;;;;;;;6342263;28;20104;-79
2024/01/22 08:10:10;;;;;;;6.37;3.50;;;;;;;;;;6326817;27;20031;-80
2024/01/22 08:13:11;;;;;;;5.00;3.03;;;;;;;;;;6339875;28;20036;-80
2024/01/22 08:16:12;;;;;;;5.83;3.53;;;;;;;;;;6341699;28;20460;-78
2024/01/22 08:19:12;;;;;;;5.00;3.20;;;;;;;;;;6332756;28;20024;-81
2024/01/22 08:22:12;;;;;;;7.07;3.63;;;;;;;;;;6345122;28;20535;-82
2024/01/22 08:25:18;;;;;;;4.93;3.70;;;;;;;;;;6339999;28;20098;-81
2024/01/22 08:28:19;;;;;;;5.65;3.75;;;;;;;;;;6314739;28;20491;-81
2024/01/22 08:31:19;;;;;;;6.20;3.50;;;;;;;;;;6332905;28;20028;-81
2024/01/22 08:34:19;;;;;;;5.23;3.53;;;;;;;;;;6325865;28;20081;-82
2024/01/22 08:37:19;;;;;;;4.80;3.10;;;;;;;;;;6331080;28;20012;-81
2024/01/22 08:40:23;;;;;;;6.33;3.57;;;;;;;;;;6319358;28;20020;-81
2024/01/22 08:43:23;;;;;;;5.63;3.65;;;;;;;;;;6323834;28;20477;-83
2024/01/22 08:46:23;;;;;;;8.07;3.90;;;;;;;;;;6332015;28;20024;-81
2024/01/22 08:49:24;;;;;;;5.50;3.60;;;;;;;;;;6338389;28;20059;-83
2024/01/22 08:52:24;;;;;;;6.13;3.47;;;;;;;;;;6334454;28;20077;-82
2024/01/22 08:55:24;;;;;;;4.97;3.57;;;;;;;;;;6331739;28;20028;-82
2024/01/22 08:58:24;;;;;;;6.50;4.23;;;;;;;;;;6337342;28;20031;-82
2024/01/22 09:01:25;;;;;;;7.77;3.60;;;;;;;;;;6338754;28;20039;-81
2024/01/22 09:04:25;;;;;;;5.40;3.50;;;;;;;;;;6335645;28;20024;-84
2024/01/22 09:07:25;;;;;;;6.20;3.73;;;;;;;;;;6342431;28;20047;-81
2024/01/22 09:10:26;;;;;;;7.40;3.55;;;;;;;;;;6330622;28;20035;-81
2024/01/22 09:13:27;;;;;;;6.93;3.77;;;;;;;;;;6341267;28;20032;-84
2024/01/22 09:16:27;;;;;;;6.43;3.47;;;;;;;;;;6347269;28;20641;-82
2024/01/22 09:19:27;;;;;;;5.07;3.40;;;;;;;;;;6333470;28;20114;-82
2024/01/22 09:22:28;;;;;;;5.23;3.40;;;;;;;;;;6339647;28;20058;-82
2024/01/22 09:25:28;;;;;;;6.18;3.45;;;;;;;;;;6342765;28;20012;-86
2024/01/22 09:28:30;;;;;;;5.70;3.27;;;;;;;;;;6343678;28;20028;-82
2024/01/22 09:31:30;;;;;;;;;;;;;;;;;;6314643;28;20028;-81
2024/01/22 09:34:31;;;;;;;4.03;2.58;;;;;;;;;;5980687;28;10000321;-81
2024/01/22 09:37:31;;;;;;;5.47;3.10;;;;;;;;;;6307422;28;20026;-81
2024/01/22 09:40:35;;;;;;;5.10;3.10;;;;;;;;;;6340997;28;20168;-81
2024/01/22 09:43:36;;;;;;;4.93;3.13;;;;;;;;;;6338764;28;20028;-81
2024/01/22 09:46:37;;;;;;;5.72;3.55;;;;;;;;;;6312388;28;20115;-80
2024/01/22 09:49:37;;;;;;;5.50;3.43;;;;;;;;;;6335507;28;20026;-80
2024/01/22 09:52:42;;;;;;;5.93;3.43;;;;;;;;;;6328469;28;20282;-82
2024/01/22 09:55:42;;;;;;;5.38;3.40;;;;;;;;;;6337031;28;20076;-82
2024/01/22 09:58:43;;;;;;;5.60;3.37;;;;;;;;;;6344250;28;20030;-84
2024/01/22 10:01:45;;;;;;;6.20;3.33;;;;;;;;;;6343942;28;20084;-80
2024/01/22 10:04:45;;;;;;;4.50;3.38;;;;;;;;;;6341946;28;20420;-77
2024/01/22 10:07:47;;;;;;;4.87;3.20;;;;;;;;;;6343014;28;20075;-78
2024/01/22 10:10:47;;;;;;;5.88;3.75;;;;;;;;;;6337392;28;20020;-78
2024/01/22 10:13:49;;;;;;;4.67;3.17;;;;;;;;;;6327990;28;20043;-78
2024/01/22 10:16:50;;;;;;;4.78;3.47;;;;;;;;;;6336805;28;20022;-79
2024/01/22 10:19:51;;;;;;;6.87;3.47;;;;;;;;;;6323611;28;20028;-78
2024/01/22 10:22:59;;;;;;;4.57;3.13;;;;;;;;;;5984575;28;9999929;-81
2024/01/22 10:26:06;;;;;;;5.93;3.80;;;;;;;;;;6333782;28;20104;-78
2024/01/22 10:29:22;;;;;;;4.82;3.67;;;;;;;;;;6331731;28;20088;-78
2024/01/22 10:32:22;;;;;;;5.35;3.50;;;;;;;;;;6333356;28;20093;-78
2024/01/22 10:35:26;;;;;;;5.63;3.63;;;;;;;;;;6341840;28;20049;-79
2024/01/22 10:38:26;;;;;;;5.45;3.97;;;;;;;;;;6339554;28;20047;-78
2024/01/22 10:41:27;;;;;;;7.17;3.80;;;;;;;;;;6343292;28;20728;-76
2024/01/22 10:44:28;;;;;;;5.60;3.50;;;;;;;;;;6334044;28;20020;-77
2024/01/22 10:47:28;;;;;;;6.23;3.43;;;;;;;;;;6343448;28;20032;-77
2024/01/22 10:50:28;;;;;;;5.10;3.23;;;;;;;;;;6332112;28;20031;-78
2024/01/22 10:53:29;;;;;;;4.80;3.37;;;;;;;;;;6341881;28;20306;-77
2024/01/22 10:56:33;;;;;;;3.97;3.37;;;;;;;;;;6350561;28;20023;-77
2024/01/22 10:59:37;;;;;;;3.85;3.17;;;;;;;;;;6350676;28;20519;-78
2024/01/22 11:02:39;;;;;;;6.55;3.72;;;;;;;;;;6341440;28;20027;-78
2024/01/22 11:05:44;;;;;;;5.50;3.33;;;;;;;;;;6346477;28;20054;-77
2024/01/22 11:08:54;;;;;;;6.43;3.42;;;;;;;;;;6315282;28;20107;-77
2024/01/22 11:11:54;;;;;;;5.25;3.75;;;;;;;;;;6299240;28;20312;-77
2024/01/22 11:14:55;;;;;;;4.53;3.47;;;;;;;;;;6316543;28;20085;-77
2024/01/22 11:17:55;;;;;;;4.90;3.00;;;;;;;;;;6311384;28;20035;-79
2024/01/22 11:21:14;;;;;;;6.23;3.43;;;;;;;;;;6309448;28;20028;-80
2024/01/22 11:24:16;;;;;;;6.00;3.47;;;;;;;;;;6307373;28;20028;-82
2024/01/22 11:27:16;;;;;;;;;;;;;;;;;;6316487;28;20013;-80
2024/01/22 11:30:22;;;;;;;4.15;2.67;;;;;;;;;;6316973;28;19940;-80
2024/01/22 11:33:25;;;;;;;5.18;3.13;;;;;;;;;;6308403;28;20033;-82
2024/01/22 11:36:44;;;;;;;4.63;3.40;;;;;;;;;;6299938;28;20039;-83
2024/01/22 11:39:46;;;;;;;5.38;3.70;;;;;;;;;;6320213;28;20024;-84
2024/01/22 11:42:46;;;;;;;5.22;3.47;;;;;;;;;;6305330;28;20084;-82
2024/01/22 11:45:50;;;;;;;5.40;3.50;;;;;;;;;;6310702;28;20357;-85
2024/01/22 11:48:52;;;;;;;5.93;3.72;;;;;;;;;;6304224;28;20048;-83
2024/01/22 11:51:52;;;;;;;5.35;3.80;;;;;;;;;;6304954;28;20035;-84
2024/01/22 11:54:55;;;;;;;4.23;3.17;;;;;;;;;;6297543;28;20105;-83
2024/01/22 11:57:55;;;;;;;4.22;3.20;;;;;;;;;;6280612;28;20395;-84
2024/01/22 12:00:56;;;;;;;6.53;3.43;;;;;;;;;;6308356;28;20037;-83
2024/01/22 12:04:06;;;;;;;3.93;3.20;;;;;;;;;;6300527;28;20027;-83
2024/01/22 12:07:07;;;;;;;4.13;2.93;;;;;;;;;;6310738;28;20098;-84
2024/01/22 12:10:21;;;;;;;4.30;2.77;;;;;;;;;;6291255;28;20032;-83
2024/01/22 12:13:22;;;;;;;4.10;3.17;;;;;;;;;;6310433;28;20055;-85
2024/01/22 12:16:22;;;;;;;4.15;2.95;;;;;;;;;;6317057;28;20028;-84
2024/01/22 12:19:22;;;;;;;4.33;2.97;;;;;;;;;;6307002;28;20392;-82
2024/01/22 12:22:24;;;;;;;4.13;3.07;;;;;;;;;;6296367;28;20024;-83
2024/01/22 12:25:32;;;;;;;4.53;2.77;;;;;;;;;;6296542;28;20115;-80
2024/01/22 12:28:32;;;;;;;4.38;2.92;;;;;;;;;;6310944;28;20701;-81
2024/01/22 12:31:32;;;;;;;3.67;2.87;;;;;;;;;;6303184;28;20085;-80
2024/01/22 12:34:33;;;;;;;3.83;2.87;;;;;;;;;;6316487;28;20389;-80
2024/01/22 12:37:34;;;;;;;4.53;3.20;;;;;;;;;;6314760;28;20024;-79
2024/01/22 12:40:34;;;;;;;4.00;2.65;;;;;;;;;;6308357;28;20477;-79
2024/01/22 12:43:38;;;;;;;4.73;3.07;;;;;;;;;;6294189;28;20032;-81
2024/01/22 12:46:38;;;;;;;4.05;2.90;;;;;;;;;;6313357;28;20028;-79
2024/01/22 12:49:39;;;;;;;3.87;2.97;;;;;;;;;;6313379;28;20357;-82
2024/01/22 12:52:40;;;;;;;3.05;2.53;;;;;;;;;;6315580;28;20024;-82
2024/01/22 12:55:40;;;;;;;4.50;2.97;;;;;;;;;;6318157;28;20028;-84
2024/01/22 12:58:43;;;;;;;4.50;2.83;;;;;;;;;;6316876;28;20047;-82
2024/01/22 13:01:44;;;;;;;3.92;2.63;;;;;;;;;;6305181;28;20028;-82
2024/01/22 13:04:44;;;;;;;7.33;3.07;;;;;;;;;;6302336;28;20040;-81
2024/01/22 13:07:44;;;;;;;4.27;2.77;;;;;;;;;;6304955;28;20428;-81
2024/01/22 13:10:45;;;;;;;3.33;2.63;;;;;;;;;;6309823;28;20509;-80
2024/01/22 13:13:45;;;;;;;4.13;2.80;;;;;;;;;;6313661;28;20081;-81
2024/01/22 13:16:45;;;;;;;5.93;2.80;;;;;;;;;;6310362;28;20419;-83
2024/01/22 13:19:46;;;;;;;4.63;2.67;;;;;;;;;;6306421;28;20107;-82
2024/01/22 13:22:46;;;;;;;8.07;2.73;;;;;;;;;;6293072;28;20020;-84
2024/01/22 13:25:46;;;;;;;3.03;2.50;;;;;;;;;;6302937;28;20411;-81
2024/01/22 13:28:47;;;;;;;5.37;2.87;;;;;;;;;;6311681;28;20020;-79
2024/01/22 13:31:47;;;;;;;4.77;2.80;;;;;;;;;;6304202;28;20024;-81
2024/01/22 13:34:47;;;;;;;4.37;2.93;;;;;;;;;;6301556;28;20024;-80
2024/01/22 13:37:47;;;;;;;6.23;2.97;;;;;;;;;;6314478;28;20038;-85
2024/01/22 13:40:48;;;;;;;4.50;2.85;;;;;;;;;;5960150;28;10000460;-84
2024/01/22 13:43:50;;;;;;;5.00;3.20;;;;;;;;;;6312328;28;20024;-84
2024/01/22 13:46:50;;;;;;;4.30;2.95;;;;;;;;;;6305400;28;20034;-84
2024/01/22 13:49:51;;;;;;;5.20;3.20;;;;;;;;;;6320085;28;20016;-84
2024/01/22 13:52:51;;;;;;;4.37;2.70;;;;;;;;;;6291028;28;20480;-83
2024/01/22 13:55:51;;;;;;;3.13;2.53;;;;;;;;;;6319500;28;20065;-83
2024/01/22 13:58:51;;;;;;;3.83;2.77;;;;;;;;;;6319636;28;20376;-84
2024/01/22 14:01:52;;;;;;;3.37;2.73;;;;;;;;;;6311331;28;20020;-84
2024/01/22 14:04:52;;;;;;;3.50;2.50;;;;;;;;;;6313553;28;20067;-85
2024/01/22 14:07:52;;;;;;;4.17;2.73;;;;;;;;;;6313671;28;20040;-86
2024/01/22 14:10:53;;;;;;;3.63;2.70;;;;;;;;;;6324461;28;20008;-85
2024/01/22 14:13:53;;;;;;;3.50;2.70;;;;;;;;;;6301701;28;20024;-85
2024/01/22 14:16:54;;;;;;;4.03;2.83;;;;;;;;;;6302212;28;20028;-85
2024/01/22 14:19:55;;;;;;;3.45;2.53;;;;;;;;;;6311274;28;20628;-86
2024/01/22 14:22:56;;;;;;;3.70;2.70;;;;;;;;;;6303782;28;20028;-85
2024/01/22 14:25:57;;;;;;;3.67;2.50;;;;;;;;;;6307049;28;20024;-84
2024/01/22 14:28:57;;;;;;;4.03;2.70;;;;;;;;;;6314530;28;20389;-85
2024/01/22 14:31:57;;;;;;;4.57;2.90;;;;;;;;;;6322916;28;20461;-85
2024/01/22 14:34:59;;;;;;;4.13;2.87;;;;;;;;;;6307363;28;20111;-84
2024/01/22 14:37:59;;;;;;;5.35;2.88;;;;;;;;;;6323766;28;20036;-84
2024/01/22 14:40:59;;;;;;;3.83;2.90;;;;;;;;;;6302161;28;20079;-85
2024/01/22 14:43:59;;;;;;;6.03;2.70;;;;;;;;;;6319195;28;20029;-85
2024/01/22 14:47:00;;;;;;;3.43;2.73;;;;;;;;;;6321628;28;20532;-85
2024/01/22 14:50:00;;;;;;;3.20;2.53;;;;;;;;;;6312185;28;20025;-83
2024/01/22 14:53:00;;;;;;;4.43;3.10;;;;;;;;;;6297034;28;20035;-85
2024/01/22 14:56:01;;;;;;;4.60;2.73;;;;;;;;;;6318083;28;20020;-86
2024/01/22 14:59:01;;;;;;;4.10;2.63;;;;;;;;;;6312159;28;20028;-86
2024/01/22 15:02:02;;;;;;;3.73;2.83;;;;;;;;;;6324099;28;20020;-85
2024/01/22 15:05:03;;;;;;;3.67;2.53;;;;;;;;;;6314675;28;20023;-85
2024/01/22 15:08:03;;;;;;;3.83;3.03;;;;;;;;;;6329822;28;20126;-86
2024/01/22 15:11:04;;;;;;;5.27;3.13;;;;;;;;;;6334973;28;20093;-86
2024/01/22 15:14:04;;;;;;;3.47;2.73;;;;;;;;;;6331771;28;20131;-85
2024/01/22 15:17:05;;;;;;;4.27;2.67;;;;;;;;;;6342096;28;20027;-85
2024/01/22 15:20:06;;;;;;;4.07;2.50;;;;;;;;;;6340375;28;20020;-85
2024/01/22 15:23:06;;;;;;;3.17;2.75;;;;;;;;;;6321019;28;20027;-84
2024/01/22 15:26:06;;;;;;;4.73;2.57;;;;;;;;;;6343338;28;20488;-86
2024/01/22 15:29:07;;;;;;;4.50;2.73;;;;;;;;;;6326108;28;20020;-86
2024/01/22 15:32:07;;;;;;;4.47;2.80;;;;;;;;;;6341985;28;20032;-84
2024/01/22 15:35:08;;;;;;;5.20;3.03;;;;;;;;;;6340139;28;20038;-85
2024/01/22 15:38:13;;;;;;;3.37;2.77;;;;;;;;;;6331421;28;20045;-83
2024/01/22 15:41:13;;;;;;;3.97;2.88;;;;;;;;;;6319577;28;20471;-83
2024/01/22 15:44:13;;;;;;;4.33;2.93;;;;;;;;;;6334641;28;20038;-84
2024/01/22 15:47:14;;;;;;;4.30;3.10;;;;;;;;;;6334068;28;20050;-85
2024/01/22 15:50:15;;;;;;;5.37;2.83;;;;;;;;;;6314389;28;20020;-85
2024/01/22 15:53:16;;;;;;;5.65;3.15;;;;;;;;;;6341219;28;20055;-85
2024/01/22 15:56:16;;;;;;;4.17;2.97;;;;;;;;;;6340219;28;20046;-85
2024/01/22 15:59:16;;;;;;;4.83;2.87;;;;;;;;;;6348482;28;20027;-84
2024/01/22 16:02:16;;;;;;;4.37;3.03;;;;;;;;;;6318528;28;20544;-84
2024/01/22 16:05:17;;;;;;;3.93;2.87;;;;;;;;;;6324650;28;20424;-85
2024/01/22 16:08:20;;;;;;;3.93;2.87;;;;;;;;;;6347731;28;20078;-87
2024/01/22 16:11:22;;;;;;;3.42;2.72;;;;;;;;;;6317994;28;20016;-85
2024/01/22 16:14:23;;;;;;;4.60;3.10;;;;;;;;;;6344813;28;20031;-85
2024/01/22 16:17:23;;;;;;;4.83;3.07;;;;;;;;;;6335809;28;20032;-87
2024/01/22 16:20:23;;;;;;;3.93;3.03;;;;;;;;;;6318133;28;20051;-86
2024/01/22 16:23:24;;;;;;;4.70;2.90;;;;;;;;;;6336106;28;20102;-85
2024/01/22 16:26:24;;;;;;;4.73;2.77;;;;;;;;;;6339219;28;20030;-86
2024/01/22 16:29:24;;;;;;;4.77;2.93;;;;;;;;;;6348803;28;20039;-85
2024/01/22 16:32:25;;;;;;;4.73;2.93;;;;;;;;;;6327780;28;20054;-85
2024/01/22 16:35:25;;;;;;;5.13;2.70;;;;;;;;;;6338194;28;20043;-85
2024/01/22 16:38:25;;;;;;;3.70;2.67;;;;;;;;;;6313629;28;20077;-85
2024/01/22 16:41:26;;;;;;;5.73;3.27;;;;;;;;;;6304995;28;20525;-84
2024/01/22 16:44:26;;;;;;;4.17;2.97;;;;;;;;;;6341865;28;20494;-85
2024/01/22 16:47:26;;;;;;;4.90;2.90;;;;;;;;;;6311900;28;20387;-85
2024/01/22 16:50:26;;;;;;;5.10;3.10;;;;;;;;;;6340147;28;20019;-85
2024/01/22 16:53:27;;;;;;;4.13;2.93;;;;;;;;;;6346365;28;20076;-85
2024/01/22 16:56:27;;;;;;;5.10;3.13;;;;;;;;;;6344378;28;20024;-85
2024/01/22 16:59:27;;;;;;;4.50;2.83;;;;;;;;;;6341744;28;20023;-83
2024/01/22 17:02:27;;;;;;;4.60;2.93;;;;;;;;;;6331036;28;20020;-84
2024/01/22 17:05:30;;;;;;;5.17;2.90;;;;;;;;;;6333333;28;20118;-84
2024/01/22 17:08:28;;;;;;;5.70;3.03;;;;;;;;;;6330861;28;20373;-82
2024/01/22 17:11:29;;;;;;;6.40;3.60;;;;;;;;;;6337975;28;20492;-83
2024/01/22 17:14:30;;;;;;;5.18;3.30;;;;;;;;;;6342520;28;20024;-84
2024/01/22 17:17:30;;;;;;;7.70;3.83;;;;;;;;;;6334406;28;20361;-87
2024/01/22 17:20:31;;;;;;;5.17;3.47;;;;;;;;;;6333385;28;20426;-88
2024/01/22 17:23:34;;;;;;;5.07;3.13;;;;;;;;;;6345022;28;20007;-89
2024/01/22 17:26:34;;;;;;;4.75;3.42;;;;;;;;;;6332353;28;20112;-88
2024/01/22 17:29:35;;;;;;;5.90;3.67;;;;;;;;;;6348568;28;20459;-89
2024/01/22 17:32:35;;;;;;;5.80;3.43;;;;;;;;;;6331769;28;20039;-89
2024/01/22 17:35:35;;;;;;;4.63;3.63;;;;;;;;;;6316450;28;20124;-84
2024/01/22 17:38:36;;;;;;;5.03;3.43;;;;;;;;;;6332415;28;20503;-79
2024/01/22 17:41:36;;;;;;;8.53;3.67;;;;;;;;;;6345747;28;20510;-79
2024/01/22 17:44:37;;;;;;;4.53;3.47;;;;;;;;;;6346141;28;20019;-80
2024/01/22 17:47:38;;;;;;;5.68;3.78;;;;;;;;;;6345299;28;20106;-80
2024/01/22 17:50:38;;;;;;;6.40;4.00;;;;;;;;;;6342367;28;20028;-81
2024/01/22 17:53:38;;;;;;;5.57;3.80;;;;;;;;;;6346546;28;20034;-80
2024/01/22 17:56:39;;;;;;;5.07;3.77;;;;;;;;;;6344557;28;20474;-79
2024/01/22 17:59:39;;;;;;;6.53;3.83;;;;;;;;;;6344584;28;20030;-79
2024/01/22 18:02:39;;;;;;;5.57;3.67;;;;;;;;;;6345352;28;20051;-80
2024/01/22 18:05:40;;;;;;;6.00;3.93;;;;;;;;;;6343028;28;20016;-80